Time;durP1;ratioP1;P1;durP2;ratioP2;P2;SDS_P1;SDS_P2;PMS_P1;PMS_P2;Temp;Humidity;BMP_temperature;BMP_pressure;BME280_temperature;BME280_humidity;BME280_pressure;Samples;Min_cycle;Max_cycle;Signal;HPM_P1;HPM_P2
2024/02/10 00:01:24;;;;;;;5.88;5.40;;;10.00;99.90;;;;;;5047716;28;20550;-65
2024/02/10 00:03:52;;;;;;;6.93;5.93;;;10.00;99.90;;;;;;5048430;28;20232;-65
2024/02/10 00:06:19;;;;;;;6.15;5.57;;;10.00;99.90;;;;;;5048211;28;20320;-65
2024/02/10 00:08:46;;;;;;;6.45;5.70;;;10.00;99.90;;;;;;5048446;28;20699;-65
2024/02/10 00:11:13;;;;;;;5.82;5.30;;;10.00;99.90;;;;;;5047952;28;20707;-65
2024/02/10 00:13:41;;;;;;;6.17;5.37;;;10.00;99.90;;;;;;5049307;28;20226;-65
2024/02/10 00:16:09;;;;;;;6.00;4.97;;;10.00;99.90;;;;;;5049283;28;20835;-65
2024/02/10 00:18:36;;;;;;;5.70;5.30;;;10.00;99.90;;;;;;5046774;28;20488;-65
2024/02/10 00:21:05;;;;;;;5.88;5.28;;;10.00;99.90;;;;;;5048795;28;21054;-65
2024/02/10 00:23:32;;;;;;;6.13;5.50;;;10.00;99.90;;;;;;5049397;28;20234;-65
2024/02/10 00:26:03;;;;;;;5.53;5.03;;;9.90;99.90;;;;;;5049673;28;20222;-65
2024/02/10 00:28:30;;;;;;;5.85;5.30;;;10.00;99.90;;;;;;5049437;28;20210;-64
2024/02/10 00:30:59;;;;;;;12.00;5.75;;;9.90;99.90;;;;;;5030002;28;20211;-65
2024/02/10 00:33:26;;;;;;;8.30;5.70;;;9.90;99.90;;;;;;5029444;28;20226;-65
2024/02/10 00:35:53;;;;;;;5.47;4.97;;;10.00;99.90;;;;;;5036632;28;20203;-65
2024/02/10 00:38:21;;;;;;;7.60;4.60;;;10.00;99.90;;;;;;5029325;28;20211;-65
2024/02/10 00:40:48;;;;;;;7.33;5.40;;;9.90;99.90;;;;;;5029084;28;20826;-65
2024/02/10 00:43:15;;;;;;;4.57;4.13;;;10.00;99.90;;;;;;5027522;28;21023;-65
2024/02/10 00:45:43;;;;;;;6.45;5.38;;;9.90;99.90;;;;;;5029052;28;20235;-65
2024/02/10 00:48:10;;;;;;;5.90;4.20;;;9.90;99.90;;;;;;5029254;28;20701;-65
2024/02/10 00:50:38;;;;;;;6.15;4.88;;;9.90;99.90;;;;;;5028579;28;20449;-65
2024/02/10 00:53:05;;;;;;;5.90;5.30;;;9.90;99.90;;;;;;5028772;28;20690;-65
2024/02/10 00:55:33;;;;;;;6.40;5.75;;;9.90;99.90;;;;;;5029274;28;20529;-65
2024/02/10 00:58:06;;;;;;;6.70;5.47;;;9.90;99.90;;;;;;5029340;28;20236;-66
2024/02/10 01:00:36;;;;;;;7.72;5.18;;;9.90;99.90;;;;;;5029118;28;20933;-65
2024/02/10 01:03:06;;;;;;;9.10;5.93;;;9.90;99.90;;;;;;5027474;28;20242;-65
2024/02/10 01:05:33;;;;;;;6.77;4.67;;;9.90;99.90;;;;;;5029126;28;20908;-65
2024/02/10 01:08:00;;;;;;;5.30;4.13;;;9.90;99.90;;;;;;5029040;28;20453;-65
2024/02/10 01:10:29;;;;;;;5.03;4.53;;;9.80;99.90;;;;;;5028657;28;20219;-65
2024/02/10 01:13:03;;;;;;;6.47;5.05;;;9.80;99.90;;;;;;5028201;28;20500;-65
2024/02/10 01:15:32;;;;;;;5.53;4.72;;;9.80;99.90;;;;;;5028968;28;20213;-65
2024/02/10 01:18:01;;;;;;;6.47;5.57;;;9.80;99.90;;;;;;5028497;28;20297;-65
2024/02/10 01:20:28;;;;;;;6.18;5.45;;;9.80;99.90;;;;;;5027573;28;20458;-65
2024/02/10 01:22:57;;;;;;;5.37;4.87;;;9.80;99.90;;;;;;5028085;28;20675;-65
2024/02/10 01:25:24;;;;;;;6.70;5.35;;;9.80;99.90;;;;;;5028279;28;20453;-65
2024/02/10 01:27:51;;;;;;;6.80;4.90;;;9.80;99.90;;;;;;5028693;28;20218;-65
2024/02/10 01:30:20;;;;;;;6.90;5.75;;;9.80;99.90;;;;;;5028626;28;20207;-65
2024/02/10 01:32:47;;;;;;;5.93;5.40;;;9.80;99.90;;;;;;5028395;28;20214;-65
2024/02/10 01:35:13;;;;;;;8.52;5.07;;;9.80;99.90;;;;;;5028706;28;20449;-65
2024/02/10 01:37:40;;;;;;;6.57;5.97;;;9.80;99.90;;;;;;5028633;28;20210;-65
2024/02/10 01:40:11;;;;;;;6.30;4.40;;;9.80;99.90;;;;;;5028221;28;20211;-65
2024/02/10 01:42:38;;;;;;;6.67;5.90;;;9.80;99.90;;;;;;5027874;28;20976;-65
2024/02/10 01:45:07;;;;;;;4.30;3.90;;;9.80;99.90;;;;;;5028400;28;20453;-65
2024/02/10 01:47:37;;;;;;;7.90;5.17;;;9.80;99.90;;;;;;5028464;28;20497;-65
2024/02/10 01:50:06;;;;;;;8.33;5.57;;;9.80;99.90;;;;;;5028278;28;20461;-65
2024/02/10 01:52:35;;;;;;;5.93;4.20;;;9.80;99.90;;;;;;5027968;28;20548;-65
2024/02/10 01:55:02;;;;;;;7.75;5.15;;;9.80;99.90;;;;;;5038375;28;20349;-65
2024/02/10 01:57:29;;;;;;;5.78;4.05;;;9.80;99.90;;;;;;5048412;28;20202;-65
2024/02/10 01:59:59;;;;;;;8.57;3.83;;;9.80;99.90;;;;;;5048307;28;20300;-65
2024/02/10 02:02:30;;;;;;;5.35;3.90;;;9.80;99.90;;;;;;5047773;28;20536;-65
2024/02/10 02:04:59;;;;;;;6.57;5.20;;;9.80;99.90;;;;;;5042445;28;20237;-65
2024/02/10 02:07:30;;;;;;;6.33;5.70;;;9.80;99.90;;;;;;5028059;28;20521;-65
2024/02/10 02:09:58;;;;;;;7.63;5.53;;;9.80;99.90;;;;;;5028217;28;20450;-65
2024/02/10 02:12:25;;;;;;;6.00;5.40;;;9.80;99.90;;;;;;5027728;28;20221;-65
2024/02/10 02:14:53;;;;;;;5.90;5.13;;;9.80;99.90;;;;;;5029622;28;20508;-65
2024/02/10 02:17:20;;;;;;;8.20;5.27;;;9.80;99.90;;;;;;5032068;28;20460;-65
2024/02/10 02:19:47;;;;;;;6.83;5.93;;;9.80;99.90;;;;;;5031842;28;20485;-66
2024/02/10 02:22:15;;;;;;;6.22;5.22;;;9.80;99.90;;;;;;5031749;28;20454;-65
2024/02/10 02:24:46;;;;;;;5.90;5.28;;;9.80;99.90;;;;;;5048352;28;20230;-65
2024/02/10 02:27:13;;;;;;;6.67;4.73;;;9.70;99.90;;;;;;5051959;28;20248;-65
2024/02/10 02:29:40;;;;;;;7.88;5.82;;;9.70;99.90;;;;;;5051612;28;20954;-65
2024/02/10 02:32:08;;;;;;;5.72;5.13;;;9.70;99.90;;;;;;5051228;28;20220;-65
2024/02/10 02:34:35;;;;;;;5.23;4.83;;;9.70;99.90;;;;;;5051874;28;20230;-65
2024/02/10 02:37:02;;;;;;;6.60;5.13;;;9.70;99.90;;;;;;5051668;28;20445;-66
2024/02/10 02:39:30;;;;;;;9.20;4.87;;;9.70;99.90;;;;;;5051681;28;20206;-65
2024/02/10 02:41:59;;;;;;;7.28;5.32;;;9.70;99.90;;;;;;5051460;28;20543;-65
2024/02/10 02:44:26;;;;;;;7.75;5.78;;;9.70;99.90;;;;;;5051329;28;20238;-65
2024/02/10 02:46:54;;;;;;;5.72;5.25;;;9.70;99.90;;;;;;5050928;28;20245;-65
2024/02/10 02:49:23;;;;;;;6.20;5.60;;;9.70;99.90;;;;;;5051337;28;20253;-66
2024/02/10 02:51:50;;;;;;;5.80;5.20;;;9.70;99.90;;;;;;5051047;28;20490;-66
2024/02/10 02:54:19;;;;;;;8.68;5.75;;;9.70;99.90;;;;;;5051455;28;20222;-65
2024/02/10 02:56:46;;;;;;;5.95;5.40;;;9.60;99.90;;;;;;5051329;28;20213;-66
2024/02/10 02:59:15;;;;;;;6.03;5.40;;;9.60;99.90;;;;;;5051129;28;20216;-66
2024/02/10 03:01:42;;;;;;;5.10;4.60;;;9.60;99.90;;;;;;5051039;28;20459;-65
2024/02/10 03:04:09;;;;;;;11.55;5.75;;;9.60;99.90;;;;;;5037950;28;20237;-66
2024/02/10 03:06:36;;;;;;;5.22;4.25;;;9.60;99.90;;;;;;5024711;28;20667;-66
2024/02/10 03:09:03;;;;;;;7.30;5.05;;;9.50;99.90;;;;;;5020693;28;20734;-65
2024/02/10 03:11:30;;;;;;;6.72;4.68;;;9.50;99.90;;;;;;5013438;28;20242;-65
2024/02/10 03:13:59;;;;;;;5.88;4.45;;;9.50;99.90;;;;;;5016152;28;20235;-65
2024/02/10 03:16:33;;;;;;;4.38;3.97;;;9.40;99.90;;;;;;5018530;28;20207;-65
2024/02/10 03:19:01;;;;;;;4.95;4.47;;;9.40;99.90;;;;;;5021648;28;20761;-65
2024/02/10 03:21:28;;;;;;;3.70;3.40;;;9.40;99.90;;;;;;5024061;28;20207;-65
2024/02/10 03:24:03;;;;;;;4.68;3.78;;;9.30;99.90;;;;;;5029394;28;20321;-65
2024/02/10 03:26:30;;;;;;;4.47;2.72;;;9.30;99.90;;;;;;5020463;28;20234;-66
2024/02/10 03:28:58;;;;;;;4.85;4.35;;;9.30;99.90;;;;;;5010867;28;20298;-65
2024/02/10 03:31:26;;;;;;;4.53;3.30;;;9.20;99.90;;;;;;5013072;28;20211;-65
2024/02/10 03:33:53;;;;;;;4.35;3.30;;;9.20;99.90;;;;;;5012965;28;20310;-65
2024/02/10 03:36:20;;;;;;;4.10;3.60;;;9.10;99.90;;;;;;5009957;28;20662;-65
2024/02/10 03:38:47;;;;;;;4.53;3.47;;;9.10;99.90;;;;;;5008037;28;20707;-65
2024/02/10 03:41:15;;;;;;;5.72;3.20;;;9.10;99.90;;;;;;5008836;28;20716;-65
2024/02/10 03:43:42;;;;;;;5.40;4.47;;;9.00;99.90;;;;;;5035613;22;20258;-62
2024/02/10 03:46:09;;;;;;;7.45;4.20;;;9.00;99.90;;;;;;5050376;28;20591;-62
2024/02/10 03:48:39;;;;;;;4.70;4.30;;;8.90;99.90;;;;;;5050592;28;20592;-63
2024/02/10 03:51:06;;;;;;;7.10;4.53;;;8.80;99.90;;;;;;5049771;28;20619;-63
2024/02/10 03:53:34;;;;;;;6.47;5.88;;;8.80;99.90;;;;;;5050276;28;20456;-62
2024/02/10 03:56:00;;;;;;;5.53;5.03;;;8.70;99.90;;;;;;5050180;28;20214;-62
2024/02/10 03:58:27;;;;;;;9.10;5.72;;;8.70;99.90;;;;;;5049836;28;20225;-62
2024/02/10 04:00:54;;;;;;;7.38;5.30;;;8.60;99.90;;;;;;5050210;28;20212;-62
2024/02/10 04:03:21;;;;;;;7.80;7.00;;;8.60;99.90;;;;;;5049189;28;20680;-62
2024/02/10 04:05:49;;;;;;;8.45;7.65;;;8.50;99.90;;;;;;5049880;28;20210;-62
2024/02/10 04:08:18;;;;;;;10.45;7.00;;;8.50;99.90;;;;;;5049594;28;20232;-63
2024/02/10 04:10:45;;;;;;;9.93;7.88;;;8.50;99.90;;;;;;5050147;28;20202;-62
2024/02/10 04:13:12;;;;;;;11.82;8.10;;;8.50;99.90;;;;;;5049539;28;20211;-62
2024/02/10 04:15:39;;;;;;;9.93;8.13;;;8.50;99.90;;;;;;5049972;28;20237;-62
2024/02/10 04:18:05;;;;;;;10.93;8.52;;;8.50;99.90;;;;;;5050028;28;20259;-62
2024/02/10 04:20:32;;;;;;;11.77;8.60;;;8.40;99.90;;;;;;5049616;28;20277;-62
2024/02/10 04:23:05;;;;;;;10.52;8.30;;;8.40;99.90;;;;;;5049518;28;20536;-62
2024/02/10 04:25:33;;;;;;;10.90;8.18;;;8.40;99.90;;;;;;5049680;28;20214;-62
2024/02/10 04:28:02;;;;;;;10.35;8.20;;;8.40;99.90;;;;;;5048975;28;20726;-62
2024/02/10 04:30:30;;;;;;;9.23;8.20;;;8.40;99.90;;;;;;5048314;28;20207;-62
2024/02/10 04:32:57;;;;;;;9.35;7.72;;;8.40;99.90;;;;;;5048316;28;20218;-62
2024/02/10 04:35:25;;;;;;;8.55;7.72;;;8.40;99.90;;;;;;5048656;28;20292;-61
2024/02/10 04:37:53;;;;;;;15.35;8.35;;;8.30;99.90;;;;;;5049126;28;20252;-62
2024/02/10 04:40:23;;;;;;;9.32;7.10;;;8.40;99.90;;;;;;5048886;28;20218;-62
2024/02/10 04:42:50;;;;;;;9.63;7.75;;;8.30;99.90;;;;;;5045720;28;20210;-62
2024/02/10 04:45:28;;;;;;;10.07;8.98;;;8.40;99.90;;;;;;5048945;28;20254;-62
2024/02/10 04:47:56;;;;;;;13.77;8.63;;;8.30;99.90;;;;;;5049147;28;20326;-62
2024/02/10 04:50:23;;;;;;;10.20;8.82;;;8.30;99.90;;;;;;5049358;28;20211;-62
2024/02/10 04:52:50;;;;;;;10.98;9.38;;;8.30;99.90;;;;;;5049040;28;20213;-62
2024/02/10 04:55:19;;;;;;;7.80;7.10;;;8.30;99.90;;;;;;5049151;28;20245;-62
2024/02/10 04:57:47;;;;;;;9.00;7.70;;;8.30;99.90;;;;;;5049097;28;20206;-62
2024/02/10 05:00:15;;;;;;;10.45;7.63;;;8.30;99.90;;;;;;5048729;28;20210;-62
2024/02/10 05:02:44;;;;;;;13.10;7.35;;;8.30;99.90;;;;;;5048609;28;20256;-61
2024/02/10 05:05:11;;;;;;;8.77;7.30;;;8.30;99.90;;;;;;5048903;28;20253;-62
2024/02/10 05:07:42;;;;;;;9.38;8.00;;;8.30;99.90;;;;;;5048972;28;20237;-62
2024/02/10 05:10:11;;;;;;;12.52;7.65;;;8.30;99.90;;;;;;5048128;28;20677;-62
2024/02/10 05:12:38;;;;;;;9.90;7.78;;;8.20;99.90;;;;;;5048186;28;20217;-61
2024/02/10 05:15:09;;;;;;;9.38;8.40;;;8.20;99.90;;;;;;5048576;28;20738;-62
2024/02/10 05:17:39;;;;;;;9.77;8.07;;;8.20;99.90;;;;;;5049015;28;20307;-62
2024/02/10 05:20:13;;;;;;;8.45;7.13;;;8.20;99.90;;;;;;5048605;28;20221;-62
2024/02/10 05:22:42;;;;;;;9.07;7.93;;;8.10;99.90;;;;;;5048423;28;20276;-62
2024/02/10 05:25:11;;;;;;;12.10;7.93;;;8.10;99.90;;;;;;5048788;28;20583;-62
2024/02/10 05:27:38;;;;;;;11.32;8.10;;;8.10;99.90;;;;;;5048652;28;20236;-62
2024/02/10 05:30:14;;;;;;;12.10;7.95;;;8.00;99.90;;;;;;5048565;28;20922;-62
2024/02/10 05:32:44;;;;;;;14.48;10.10;;;8.10;99.90;;;;;;5048107;28;20964;-62
2024/02/10 05:35:14;;;;;;;12.68;10.23;;;8.10;99.90;;;;;;5048501;28;20292;-62
2024/02/10 05:37:41;;;;;;;19.77;13.20;;;8.10;99.90;;;;;;5048289;28;20214;-62
2024/02/10 05:40:11;;;;;;;16.85;12.43;;;8.10;99.90;;;;;;5048126;28;20701;-61
2024/02/10 05:42:38;;;;;;;13.95;11.05;;;8.10;99.90;;;;;;5047975;28;20210;-62
2024/02/10 05:45:07;;;;;;;14.25;11.55;;;8.20;99.90;;;;;;5048176;28;20619;-61
2024/02/10 05:47:35;;;;;;;13.27;10.95;;;8.20;99.90;;;;;;5048310;28;20682;-62
2024/02/10 05:50:04;;;;;;;15.73;11.57;;;8.20;99.90;;;;;;5052583;28;20214;-62
2024/02/10 05:52:34;;;;;;;18.05;12.40;;;8.20;99.90;;;;;;5054714;28;20626;-62
2024/02/10 05:55:01;;;;;;;19.50;12.30;;;8.20;99.90;;;;;;5055155;28;20230;-62
2024/02/10 05:57:28;;;;;;;15.75;10.88;;;8.20;99.90;;;;;;5055283;28;20653;-62
2024/02/10 05:59:55;;;;;;;14.52;11.43;;;8.20;99.90;;;;;;5054839;28;20210;-62
2024/02/10 06:02:23;;;;;;;18.88;14.57;;;8.20;99.90;;;;;;5054501;28;20216;-62
2024/02/10 06:04:52;;;;;;;14.55;10.40;;;8.20;99.90;;;;;;5054695;28;20347;-62
2024/02/10 06:07:19;;;;;;;16.63;11.10;;;8.20;99.90;;;;;;5054931;28;20226;-62
2024/02/10 06:09:46;;;;;;;17.00;12.68;;;8.20;99.90;;;;;;5054833;28;20291;-62
2024/02/10 06:12:14;;;;;;;20.58;12.00;;;8.20;99.90;;;;;;5054253;28;20214;-62
2024/02/10 06:14:41;;;;;;;18.48;12.65;;;8.10;99.90;;;;;;5054714;28;20264;-62
2024/02/10 06:17:08;;;;;;;18.73;11.13;;;8.10;99.90;;;;;;5054757;28;20293;-62
2024/02/10 06:19:38;;;;;;;18.70;10.80;;;8.10;99.90;;;;;;5054905;28;20579;-62
2024/02/10 06:22:08;;;;;;;14.75;11.25;;;8.10;99.90;;;;;;5054358;28;20958;-62
2024/02/10 06:24:35;;;;;;;22.88;13.32;;;8.10;99.90;;;;;;5054908;28;20233;-61
2024/02/10 06:27:01;;;;;;;21.92;11.70;;;8.10;99.90;;;;;;5054719;28;20210;-62
2024/02/10 06:29:29;;;;;;;20.55;13.27;;;8.10;99.90;;;;;;5054661;28;20695;-62
2024/02/10 06:31:57;;;;;;;23.63;12.98;;;8.10;99.90;;;;;;5054274;28;20685;-62
2024/02/10 06:34:25;;;;;;;18.33;12.13;;;8.10;99.90;;;;;;5054661;28;20233;-62
2024/02/10 06:36:54;;;;;;;20.63;13.98;;;8.00;99.90;;;;;;5054903;28;20210;-62
2024/02/10 06:39:20;;;;;;;26.77;14.88;;;8.10;99.90;;;;;;5054552;28;20704;-62
2024/02/10 06:41:50;;;;;;;18.73;13.68;;;8.00;99.90;;;;;;5054156;28;20216;-62
2024/02/10 06:44:17;;;;;;;20.35;13.75;;;8.00;99.90;;;;;;5054153;28;20273;-62
2024/02/10 06:46:45;;;;;;;19.10;15.10;;;8.00;99.90;;;;;;5054820;28;20203;-62
2024/02/10 06:49:14;;;;;;;22.83;14.95;;;8.00;99.90;;;;;;5054251;28;20230;-62
2024/02/10 06:51:42;;;;;;;19.70;14.48;;;7.90;99.90;;;;;;5054091;28;20221;-62
2024/02/10 06:54:12;;;;;;;21.40;16.67;;;7.90;99.90;;;;;;5054527;28;20241;-61
2024/02/10 06:56:39;;;;;;;28.80;16.50;;;7.90;99.90;;;;;;5054489;28;20229;-62
2024/02/10 06:59:06;;;;;;;17.73;14.45;;;7.90;99.90;;;;;;5054182;28;20213;-62
2024/02/10 07:01:34;;;;;;;19.80;14.15;;;7.90;99.90;;;;;;5050740;28;20210;-62
2024/02/10 07:04:02;;;;;;;16.90;15.10;;;7.90;99.90;;;;;;5051771;28;20534;-62
2024/02/10 07:06:31;;;;;;;24.90;14.50;;;8.00;99.90;;;;;;5051403;28;20214;-62
2024/02/10 07:09:03;;;;;;;19.33;12.77;;;8.00;99.90;;;;;;5050999;28;20571;-62
2024/02/10 07:11:32;;;;;;;16.70;12.05;;;8.00;99.90;;;;;;5050527;28;20210;-62
2024/02/10 07:13:59;;;;;;;19.25;14.88;;;8.00;99.90;;;;;;5050899;28;20316;-62
2024/02/10 07:16:26;;;;;;;21.42;14.10;;;8.10;99.90;;;;;;5051065;28;20221;-62
2024/02/10 07:18:53;;;;;;;19.58;13.25;;;8.10;99.90;;;;;;5050721;28;20756;-62
2024/02/10 07:21:20;;;;;;;20.42;15.52;;;8.20;99.90;;;;;;5050475;28;20313;-62
2024/02/10 07:23:46;;;;;;;31.40;17.23;;;8.20;99.90;;;;;;5050837;28;20226;-62
2024/02/10 07:26:13;;;;;;;37.63;18.88;;;8.30;99.90;;;;;;5051064;28;20570;-62
2024/02/10 07:28:41;;;;;;;47.20;19.27;;;8.40;99.90;;;;;;5050831;28;20234;-62
2024/02/10 07:31:08;;;;;;;46.03;19.90;;;8.40;99.90;;;;;;5050499;28;20927;-62
2024/02/10 07:33:35;;;;;;;56.78;19.33;;;8.50;99.90;;;;;;5050827;28;20234;-62
2024/02/10 07:36:02;;;;;;;60.75;19.13;;;8.50;99.90;;;;;;5050824;28;20693;-62
2024/02/10 07:38:29;;;;;;;68.45;20.40;;;8.50;99.90;;;;;;5050595;28;20264;-62
2024/02/10 07:40:56;;;;;;;43.70;19.08;;;8.60;99.90;;;;;;5050589;28;20297;-62
2024/02/10 07:43:23;;;;;;;50.67;20.05;;;8.70;99.90;;;;;;5050210;28;20728;-62
2024/02/10 07:45:52;;;;;;;50.20;18.27;;;8.70;99.90;;;;;;5050092;28;20782;-62
2024/02/10 07:48:19;;;;;;;60.45;18.00;;;8.70;99.90;;;;;;5050043;28;20491;-61
2024/02/10 07:50:47;;;;;;;47.85;16.75;;;8.70;99.90;;;;;;5050421;28;20210;-62
2024/02/10 07:53:14;;;;;;;38.03;15.82;;;8.70;99.90;;;;;;5049440;28;20216;-62
2024/02/10 07:55:42;;;;;;;49.25;16.27;;;8.80;99.90;;;;;;5050252;28;20218;-62
2024/02/10 07:58:12;;;;;;;33.65;15.32;;;8.80;99.90;;;;;;5050154;28;20305;-62
2024/02/10 08:00:40;;;;;;;35.83;15.32;;;8.80;99.90;;;;;;5050251;28;20241;-62
2024/02/10 08:03:08;;;;;;;45.17;17.02;;;8.80;99.90;;;;;;5049395;28;20301;-62
2024/02/10 08:05:37;;;;;;;39.30;16.55;;;8.80;99.90;;;;;;5050107;28;20680;-62
2024/02/10 08:08:09;;;;;;;46.40;15.43;;;8.80;99.90;;;;;;5050180;28;20795;-62
2024/02/10 08:10:36;;;;;;;35.85;16.17;;;8.80;99.90;;;;;;5050254;28;20256;-62
2024/02/10 08:13:03;;;;;;;31.20;15.65;;;8.80;99.90;;;;;;5049470;28;20206;-61
2024/02/10 08:15:32;;;;;;;23.45;13.95;;;8.80;99.90;;;;;;5049976;28;20234;-62
2024/02/10 08:18:08;;;;;;;21.65;12.15;;;8.80;99.90;;;;;;5049895;28;20771;-61
2024/02/10 08:20:40;;;;;;;22.95;13.75;;;8.90;99.90;;;;;;5049849;28;20214;-62
2024/02/10 08:23:13;;;;;;;18.45;12.50;;;8.90;99.90;;;;;;5049455;28;20884;-62
2024/02/10 08:25:40;;;;;;;34.00;13.15;;;8.90;99.90;;;;;;5049751;28;20685;-61
2024/02/10 08:28:07;;;;;;;21.80;12.13;;;8.90;99.90;;;;;;5049223;28;20262;-62
2024/02/10 08:30:34;;;;;;;24.77;12.40;;;9.00;99.90;;;;;;5049240;28;20210;-62
2024/02/10 08:33:01;;;;;;;21.15;11.63;;;9.00;99.90;;;;;;5048683;28;20210;-62
2024/02/10 08:35:28;;;;;;;15.73;9.95;;;9.00;99.90;;;;;;5049441;28;20225;-62
2024/02/10 08:37:57;;;;;;;22.27;11.93;;;9.00;99.90;;;;;;5049511;28;20294;-62
2024/02/10 08:40:24;;;;;;;24.43;11.13;;;9.00;99.90;;;;;;5049176;28;20217;-61
2024/02/10 08:42:53;;;;;;;16.15;11.23;;;9.10;99.90;;;;;;5046691;28;20989;-62
2024/02/10 08:45:20;;;;;;;17.88;10.35;;;9.10;99.90;;;;;;5047771;28;20337;-62
2024/02/10 08:47:47;;;;;;;14.75;9.88;;;9.20;99.90;;;;;;5048324;28;20216;-61
2024/02/10 08:50:14;;;;;;;14.23;10.77;;;9.20;99.90;;;;;;5048388;28;20255;-62
2024/02/10 08:52:48;;;;;;;14.55;11.07;;;9.30;99.90;;;;;;5048088;28;20210;-62
2024/02/10 08:55:16;;;;;;;13.68;9.38;;;9.30;99.90;;;;;;5048767;28;20316;-62
2024/02/10 08:57:45;;;;;;;12.43;9.70;;;9.40;99.90;;;;;;5048582;28;20220;-62
2024/02/10 09:00:15;;;;;;;15.90;9.00;;;9.40;99.90;;;;;;5048068;28;20480;-62
2024/02/10 09:02:45;;;;;;;12.90;9.73;;;9.40;99.90;;;;;;5048489;28;20631;-62
2024/02/10 09:05:12;;;;;;;20.38;11.35;;;9.40;99.90;;;;;;5048611;28;20262;-62
2024/02/10 09:07:39;;;;;;;15.23;10.55;;;9.40;99.90;;;;;;5048124;28;20291;-62
2024/02/10 09:10:08;;;;;;;11.60;9.50;;;9.40;99.90;;;;;;5047702;28;20210;-62
2024/02/10 09:12:36;;;;;;;15.20;11.18;;;9.40;99.90;;;;;;5047870;28;20476;-62
2024/02/10 09:15:03;;;;;;;14.90;10.68;;;9.40;99.90;;;;;;5048272;28;20326;-62
2024/02/10 09:17:30;;;;;;;16.65;10.88;;;9.40;99.90;;;;;;5048533;28;20213;-62
2024/02/10 09:19:57;;;;;;;14.38;10.63;;;9.40;99.90;;;;;;5047804;28;20298;-62
2024/02/10 09:22:24;;;;;;;14.32;12.00;;;9.50;99.90;;;;;;5047528;28;20210;-62
2024/02/10 09:24:53;;;;;;;20.30;12.18;;;9.50;99.90;;;;;;5047381;28;20237;-62
2024/02/10 09:27:20;;;;;;;16.25;9.90;;;9.50;99.90;;;;;;5047349;28;20213;-62
2024/02/10 09:29:49;;;;;;;14.40;10.80;;;9.50;99.90;;;;;;5047690;28;20327;-62
2024/02/10 09:32:15;;;;;;;11.63;10.15;;;9.50;99.90;;;;;;5047625;28;20297;-62
2024/02/10 09:34:44;;;;;;;13.55;10.90;;;9.60;99.90;;;;;;5046336;28;20739;-62
2024/02/10 09:37:10;;;;;;;13.80;9.73;;;9.50;99.90;;;;;;5046114;28;20210;-60
2024/02/10 09:39:37;;;;;;;14.70;10.90;;;9.60;99.90;;;;;;5047056;28;20202;-62
2024/02/10 09:42:09;;;;;;;13.57;11.13;;;9.60;99.90;;;;;;5047511;28;20448;-62
2024/02/10 09:44:37;;;;;;;14.65;10.43;;;9.60;99.90;;;;;;5070069;22;20333;-62
2024/02/10 09:47:08;;;;;;;16.13;11.20;;;9.70;99.90;;;;;;5048177;28;20612;-62
2024/02/10 09:49:34;;;;;;;11.10;8.70;;;9.70;99.90;;;;;;5043435;28;20546;-62
2024/02/10 09:52:01;;;;;;;11.83;10.00;;;9.70;99.90;;;;;;5040099;28;20840;-62
2024/02/10 09:54:28;;;;;;;12.50;9.53;;;9.80;99.90;;;;;;5041033;28;20859;-62
2024/02/10 09:56:57;;;;;;;9.43;8.35;;;9.80;99.90;;;;;;5028062;28;20460;-62
2024/02/10 09:59:24;;;;;;;10.63;7.90;;;9.80;99.90;;;;;;5026811;28;20665;-61
2024/02/10 10:01:51;;;;;;;9.73;8.38;;;9.90;99.90;;;;;;5019444;28;20215;-61
2024/02/10 10:04:21;;;;;;;11.10;9.52;;;9.90;99.90;;;;;;5022046;28;20237;-62
2024/02/10 10:06:48;;;;;;;9.53;8.27;;;9.90;99.90;;;;;;5020759;28;20216;-62
2024/02/10 10:09:18;;;;;;;8.77;6.80;;;10.00;99.90;;;;;;5020561;28;20524;-62
2024/02/10 10:11:45;;;;;;;6.90;5.90;;;10.00;99.90;;;;;;5027051;28;20450;-62
2024/02/10 10:14:14;;;;;;;7.23;6.53;;;10.10;99.90;;;;;;5010836;28;20597;-62
2024/02/10 10:16:41;;;;;;;9.50;7.03;;;10.10;99.90;;;;;;5023063;28;20454;-62
2024/02/10 10:19:08;;;;;;;8.30;7.50;;;10.10;99.90;;;;;;5025175;28;20825;-63
2024/02/10 10:21:37;;;;;;;9.90;6.97;;;10.10;99.90;;;;;;5026749;28;20532;-62
2024/02/10 10:24:04;;;;;;;7.30;6.60;;;10.10;99.90;;;;;;5013392;28;20461;-62
2024/02/10 10:26:32;;;;;;;8.30;7.37;;;10.20;99.90;;;;;;5025338;28;20446;-63
2024/02/10 10:29:00;;;;;;;8.00;7.30;;;10.20;99.90;;;;;;5025329;28;20488;-63
2024/02/10 10:31:28;;;;;;;9.90;8.27;;;10.20;99.90;;;;;;5025807;28;20454;-63
2024/02/10 10:33:55;;;;;;;9.30;7.43;;;10.30;99.90;;;;;;5020096;28;20460;-62
2024/02/10 10:36:24;;;;;;;9.90;7.77;;;10.30;99.90;;;;;;5030087;28;20536;-63
2024/02/10 10:38:55;;;;;;;8.60;7.80;;;10.30;99.90;;;;;;5031029;28;20536;-63
2024/02/10 10:41:22;;;;;;;8.70;7.80;;;10.40;99.90;;;;;;5031013;28;20886;-63
2024/02/10 10:43:51;;;;;;;10.30;8.40;;;10.40;99.90;;;;;;5023925;28;20463;-63
2024/02/10 10:46:19;;;;;;;9.80;8.80;;;10.40;99.90;;;;;;5026290;28;20940;-62
2024/02/10 10:48:47;;;;;;;8.73;7.90;;;10.50;99.90;;;;;;5028200;28;20493;-62
2024/02/10 10:51:14;;;;;;;11.50;9.33;;;10.50;99.90;;;;;;5030095;28;20461;-62
2024/02/10 10:53:45;;;;;;;9.40;8.07;;;10.50;99.90;;;;;;5030995;28;20453;-62
2024/02/10 10:56:16;;;;;;;8.97;8.17;;;10.50;99.90;;;;;;5026801;28;20944;-62
2024/02/10 10:58:47;;;;;;;10.23;9.27;;;10.50;99.90;;;;;;5014360;28;20443;-62
2024/02/10 11:01:20;;;;;;;11.97;8.77;;;10.60;99.90;;;;;;5016243;28;20449;-62
2024/02/10 11:03:48;;;;;;;10.47;9.33;;;10.60;99.90;;;;;;5019430;28;20450;-62
2024/02/10 11:06:15;;;;;;;11.10;8.83;;;10.60;99.90;;;;;;5027108;28;20447;-62
2024/02/10 11:08:45;;;;;;;10.40;8.27;;;10.60;99.90;;;;;;5009249;28;20518;-63
2024/02/10 11:11:15;;;;;;;9.93;9.03;;;10.70;99.90;;;;;;5017215;28;20454;-62
2024/02/10 11:13:42;;;;;;;9.90;8.23;;;10.70;99.90;;;;;;5011646;28;20923;-62
2024/02/10 11:16:12;;;;;;;7.20;6.60;;;10.70;99.90;;;;;;5013374;28;20562;-62
2024/02/10 11:18:39;;;;;;;8.93;8.07;;;10.70;99.90;;;;;;5022599;28;20523;-63
2024/02/10 11:21:10;;;;;;;9.80;7.97;;;10.80;99.90;;;;;;5011172;28;21314;-63
2024/02/10 11:23:38;;;;;;;9.90;8.90;;;10.80;99.90;;;;;;5015341;28;21125;-63
2024/02/10 11:26:07;;;;;;;10.33;8.83;;;10.80;99.90;;;;;;5016175;28;20495;-62
2024/02/10 11:28:38;;;;;;;10.93;9.77;;;10.90;99.90;;;;;;5009841;28;20451;-63
2024/02/10 11:31:09;;;;;;;9.63;8.60;;;10.90;99.90;;;;;;5029381;28;20449;-62
2024/02/10 11:33:36;;;;;;;11.00;10.00;;;11.00;99.90;;;;;;5017324;28;20485;-63
2024/02/10 11:36:04;;;;;;;11.97;10.67;;;11.00;99.90;;;;;;5020126;28;20552;-63
2024/02/10 11:38:31;;;;;;;11.80;10.70;;;11.10;99.90;;;;;;5028392;28;20519;-62
2024/02/10 11:40:57;;;;;;;12.30;11.30;;;11.10;99.90;;;;;;5020316;28;20537;-63
2024/02/10 11:43:26;;;;;;;13.73;11.50;;;11.20;99.90;;;;;;5017954;28;21155;-63
2024/02/10 11:45:54;;;;;;;12.50;11.20;;;11.20;99.90;;;;;;5024476;28;20478;-63
2024/02/10 11:48:21;;;;;;;12.90;10.63;;;11.30;99.90;;;;;;5018930;28;20461;-63
2024/02/10 11:50:49;;;;;;;11.50;10.30;;;11.30;99.90;;;;;;5031652;28;20499;-62
2024/02/10 11:53:16;;;;;;;12.73;11.33;;;11.30;99.90;;;;;;5028513;28;20461;-63
2024/02/10 11:55:47;;;;;;;13.23;11.13;;;11.30;99.90;;;;;;5029583;28;20485;-63
2024/02/10 11:58:16;;;;;;;12.83;10.20;;;11.30;99.90;;;;;;5028921;28;20548;-62
2024/02/10 12:00:44;;;;;;;11.80;10.67;;;11.30;99.90;;;;;;5025230;28;20489;-63
2024/02/10 12:03:23;;;;;;;12.03;10.50;;;11.40;99.90;;;;;;5023925;28;20446;-63
2024/02/10 12:05:50;;;;;;;13.40;10.67;;;11.40;99.90;;;;;;5024017;28;20461;-63
2024/02/10 12:08:17;;;;;;;14.03;12.30;;;11.40;99.90;;;;;;5020327;28;20448;-63
2024/02/10 12:10:44;;;;;;;14.63;13.13;;;11.30;99.90;;;;;;5028221;28;20481;-62
2024/02/10 12:13:10;;;;;;;15.37;13.53;;;11.30;99.90;;;;;;5028909;28;20504;-62
2024/02/10 12:15:38;;;;;;;15.17;13.57;;;11.40;99.90;;;;;;5029211;28;20505;-62
2024/02/10 12:18:07;;;;;;;15.73;13.80;;;11.40;99.90;;;;;;5028333;28;20529;-62
2024/02/10 12:20:37;;;;;;;13.10;11.90;;;11.30;99.90;;;;;;5029152;28;20532;-63
2024/02/10 12:23:04;;;;;;;16.13;14.33;;;11.40;99.90;;;;;;5028982;28;20493;-62
2024/02/10 12:25:32;;;;;;;14.40;12.90;;;11.40;99.90;;;;;;5029350;28;20600;-63
2024/02/10 12:27:59;;;;;;;15.33;13.83;;;11.40;99.90;;;;;;5029358;28;20461;-63
2024/02/10 12:30:26;;;;;;;17.10;15.40;;;11.40;99.90;;;;;;5028596;28;21156;-62
2024/02/10 12:32:53;;;;;;;20.23;15.30;;;11.40;99.90;;;;;;5028821;28;20460;-63
2024/02/10 12:35:20;;;;;;;18.00;15.40;;;11.40;99.90;;;;;;5029074;28;20556;-63
2024/02/10 12:37:48;;;;;;;16.23;14.63;;;11.40;99.90;;;;;;5029152;28;20540;-62
2024/02/10 12:40:18;;;;;;;16.83;14.10;;;11.40;99.90;;;;;;5028991;28;20445;-63
2024/02/10 12:42:46;;;;;;;16.40;14.77;;;11.40;99.90;;;;;;5028529;28;20901;-63
2024/02/10 12:45:14;;;;;;;15.37;13.80;;;11.40;99.90;;;;;;5028578;28;20488;-63
2024/02/10 12:47:42;;;;;;;17.17;15.40;;;11.40;99.90;;;;;;5028771;28;20454;-63
2024/02/10 12:50:09;;;;;;;14.77;13.37;;;11.40;99.90;;;;;;5028272;28;20529;-62